sensor_id;sensor_type;location;lat;lon;timestamp;temperature;humidity
44695;DHT22;32845;59.422;17.930;2023-11-21T00:00:28;1.10;99.90
44695;DHT22;32845;59.422;17.930;2023-11-21T00:04:59;1.10;99.90
44695;DHT22;32845;59.422;17.930;2023-11-21T00:09:29;1.10;99.90
44695;DHT22;32845;59.422;17.930;2023-11-21T00:14:00;1.10;99.90
44695;DHT22;32845;59.422;17.930;2023-11-21T00:18:30;1.20;99.90
44695;DHT22;32845;59.422;17.930;2023-11-21T00:23:01;1.20;99.90
44695;DHT22;32845;59.422;17.930;2023-11-21T00:27:32;1.20;99.90
44695;DHT22;32845;59.422;17.930;2023-11-21T00:32:03;1.20;99.90
44695;DHT22;32845;59.422;17.930;2023-11-21T00:36:35;1.20;99.90
44695;DHT22;32845;59.422;17.930;2023-11-21T00:41:06;1.20;99.90
44695;DHT22;32845;59.422;17.930;2023-11-21T00:45:37;1.20;99.90
44695;DHT22;32845;59.422;17.930;2023-11-21T00:50:08;1.20;99.90
44695;DHT22;32845;59.422;17.930;2023-11-21T00:54:40;1.30;99.90
44695;DHT22;32845;59.422;17.930;2023-11-21T00:59:10;1.30;99.90
44695;DHT22;32845;59.422;17.930;2023-11-21T01:03:41;1.30;99.90
44695;DHT22;32845;59.422;17.930;2023-11-21T01:08:12;1.30;99.90
44695;DHT22;32845;59.422;17.930;2023-11-21T01:12:43;1.30;99.90
44695;DHT22;32845;59.422;17.930;2023-11-21T01:17:13;1.30;99.90
44695;DHT22;32845;59.422;17.930;2023-11-21T01:21:44;1.30;99.90
44695;DHT22;32845;59.422;17.930;2023-11-21T01:26:14;1.30;99.90
44695;DHT22;32845;59.422;17.930;2023-11-21T01:30:45;1.30;99.90
44695;DHT22;32845;59.422;17.930;2023-11-21T01:35:16;1.30;99.90
44695;DHT22;32845;59.422;17.930;2023-11-21T01:39:47;1.30;99.90
44695;DHT22;32845;59.422;17.930;2023-11-21T01:44:17;1.30;99.90
44695;DHT22;32845;59.422;17.930;2023-11-21T01:48:49;1.30;99.90
44695;DHT22;32845;59.422;17.930;2023-11-21T01:53:20;1.30;99.90
44695;DHT22;32845;59.422;17.930;2023-11-21T01:57:51;1.30;99.90
44695;DHT22;32845;59.422;17.930;2023-11-21T02:02:22;1.30;99.90
44695;DHT22;32845;59.422;17.930;2023-11-21T02:06:52;1.30;99.90
44695;DHT22;32845;59.422;17.930;2023-11-21T02:11:24;1.30;99.90
44695;DHT22;32845;59.422;17.930;2023-11-21T02:15:57;1.30;99.90
44695;DHT22;32845;59.422;17.930;2023-11-21T02:20:28;1.30;99.90
44695;DHT22;32845;59.422;17.930;2023-11-21T02:25:00;1.30;99.90
44695;DHT22;32845;59.422;17.930;2023-11-21T02:29:31;1.30;99.90
44695;DHT22;32845;59.422;17.930;2023-11-21T02:34:01;1.30;99.90
44695;DHT22;32845;59.422;17.930;2023-11-21T02:38:33;1.30;99.90
44695;DHT22;32845;59.422;17.930;2023-11-21T02:43:04;1.30;99.90
44695;DHT22;32845;59.422;17.930;2023-11-21T02:47:36;1.30;99.90
44695;DHT22;32845;59.422;17.930;2023-11-21T02:52:06;1.30;99.90
44695;DHT22;32845;59.422;17.930;2023-11-21T02:56:37;1.30;99.90
44695;DHT22;32845;59.422;17.930;2023-11-21T03:01:07;1.40;99.90
44695;DHT22;32845;59.422;17.930;2023-11-21T03:05:38;1.40;99.90
44695;DHT22;32845;59.422;17.930;2023-11-21T03:10:09;1.40;99.90
44695;DHT22;32845;59.422;17.930;2023-11-21T03:14:41;1.40;99.90
44695;DHT22;32845;59.422;17.930;2023-11-21T03:19:11;1.40;99.90
44695;DHT22;32845;59.422;17.930;2023-11-21T03:23:42;1.50;99.90
44695;DHT22;32845;59.422;17.930;2023-11-21T03:28:13;1.50;99.90
44695;DHT22;32845;59.422;17.930;2023-11-21T03:32:43;1.50;99.90
44695;DHT22;32845;59.422;17.930;2023-11-21T03:37:14;1.50;99.90
44695;DHT22;32845;59.422;17.930;2023-11-21T03:41:44;1.50;99.90
44695;DHT22;32845;59.422;17.930;2023-11-21T03:46:15;1.50;99.90
44695;DHT22;32845;59.422;17.930;2023-11-21T03:50:45;1.60;99.90
44695;DHT22;32845;59.422;17.930;2023-11-21T03:55:17;1.60;99.90
44695;DHT22;32845;59.422;17.930;2023-11-21T03:59:48;1.60;99.90
44695;DHT22;32845;59.422;17.930;2023-11-21T04:04:18;1.60;99.90
44695;DHT22;32845;59.422;17.930;2023-11-21T04:08:50;1.70;99.90
44695;DHT22;32845;59.422;17.930;2023-11-21T04:13:20;1.60;99.90
44695;DHT22;32845;59.422;17.930;2023-11-21T04:17:51;1.60;99.90
44695;DHT22;32845;59.422;17.930;2023-11-21T04:22:21;1.70;99.90
44695;DHT22;32845;59.422;17.930;2023-11-21T04:26:52;1.70;99.90
44695;DHT22;32845;59.422;17.930;2023-11-21T04:31:23;1.70;99.90
44695;DHT22;32845;59.422;17.930;2023-11-21T04:35:54;1.70;99.90
44695;DHT22;32845;59.422;17.930;2023-11-21T04:40:25;1.70;99.90
44695;DHT22;32845;59.422;17.930;2023-11-21T04:44:57;1.70;99.90
44695;DHT22;32845;59.422;17.930;2023-11-21T04:49:28;1.70;99.90
44695;DHT22;32845;59.422;17.930;2023-11-21T04:53:58;1.70;99.90
44695;DHT22;32845;59.422;17.930;2023-11-21T04:58:30;1.70;99.90
44695;DHT22;32845;59.422;17.930;2023-11-21T05:03:00;1.70;99.90
44695;DHT22;32845;59.422;17.930;2023-11-21T05:07:32;1.70;99.90
44695;DHT22;32845;59.422;17.930;2023-11-21T05:12:03;1.70;99.90
44695;DHT22;32845;59.422;17.930;2023-11-21T05:16:34;1.70;99.90
44695;DHT22;32845;59.422;17.930;2023-11-21T05:21:05;1.70;99.90
44695;DHT22;32845;59.422;17.930;2023-11-21T05:25:36;1.70;99.90
44695;DHT22;32845;59.422;17.930;2023-11-21T05:30:07;1.70;99.90
44695;DHT22;32845;59.422;17.930;2023-11-21T05:34:42;1.70;99.90
44695;DHT22;32845;59.422;17.930;2023-11-21T05:39:14;1.70;99.90
44695;DHT22;32845;59.422;17.930;2023-11-21T05:43:47;1.70;99.90
44695;DHT22;32845;59.422;17.930;2023-11-21T05:48:18;1.70;99.90
44695;DHT22;32845;59.422;17.930;2023-11-21T05:52:49;1.70;99.90
44695;DHT22;32845;59.422;17.930;2023-11-21T05:57:19;1.70;99.90
44695;DHT22;32845;59.422;17.930;2023-11-21T06:01:50;1.70;99.90
44695;DHT22;32845;59.422;17.930;2023-11-21T06:06:21;1.70;99.90
44695;DHT22;32845;59.422;17.930;2023-11-21T06:10:56;1.70;99.90
44695;DHT22;32845;59.422;17.930;2023-11-21T06:15:26;1.70;99.90
44695;DHT22;32845;59.422;17.930;2023-11-21T06:19:58;1.70;99.90
44695;DHT22;32845;59.422;17.930;2023-11-21T06:24:28;1.70;99.90
44695;DHT22;32845;59.422;17.930;2023-11-21T06:28:59;1.70;99.90
44695;DHT22;32845;59.422;17.930;2023-11-21T06:33:30;1.60;99.90
44695;DHT22;32845;59.422;17.930;2023-11-21T06:38:01;1.60;99.90
44695;DHT22;32845;59.422;17.930;2023-11-21T06:42:31;1.60;99.90
44695;DHT22;32845;59.422;17.930;2023-11-21T06:47:02;1.60;99.90
44695;DHT22;32845;59.422;17.930;2023-11-21T06:51:32;1.60;99.90
44695;DHT22;32845;59.422;17.930;2023-11-21T06:56:03;1.60;99.90
44695;DHT22;32845;59.422;17.930;2023-11-21T07:00:34;1.60;99.90
44695;DHT22;32845;59.422;17.930;2023-11-21T07:05:05;1.60;99.90
44695;DHT22;32845;59.422;17.930;2023-11-21T07:09:36;1.60;99.90
44695;DHT22;32845;59.422;17.930;2023-11-21T07:14:06;1.60;99.90
44695;DHT22;32845;59.422;17.930;2023-11-21T07:18:39;1.60;99.90
44695;DHT22;32845;59.422;17.930;2023-11-21T07:23:10;1.60;99.90
44695;DHT22;32845;59.422;17.930;2023-11-21T07:27:41;1.60;99.90
44695;DHT22;32845;59.422;17.930;2023-11-21T07:32:12;1.60;99.90
44695;DHT22;32845;59.422;17.930;2023-11-21T07:36:44;1.60;99.90
44695;DHT22;32845;59.422;17.930;2023-11-21T07:41:14;1.70;99.90
44695;DHT22;32845;59.422;17.930;2023-11-21T07:45:46;1.60;99.90
44695;DHT22;32845;59.422;17.930;2023-11-21T07:50:16;1.70;99.90
44695;DHT22;32845;59.422;17.930;2023-11-21T07:54:47;1.70;99.90
44695;DHT22;32845;59.422;17.930;2023-11-21T07:59:18;1.70;99.90
44695;DHT22;32845;59.422;17.930;2023-11-21T08:03:49;1.70;99.90
44695;DHT22;32845;59.422;17.930;2023-11-21T08:08:22;1.70;99.90
44695;DHT22;32845;59.422;17.930;2023-11-21T08:12:54;1.70;99.90
44695;DHT22;32845;59.422;17.930;2023-11-21T08:17:24;1.70;99.90
44695;DHT22;32845;59.422;17.930;2023-11-21T08:21:55;1.70;99.90
44695;DHT22;32845;59.422;17.930;2023-11-21T08:26:25;1.60;99.90
44695;DHT22;32845;59.422;17.930;2023-11-21T08:30:56;1.60;99.90
44695;DHT22;32845;59.422;17.930;2023-11-21T08:35:27;1.60;99.90
44695;DHT22;32845;59.422;17.930;2023-11-21T08:40:00;1.60;99.90
44695;DHT22;32845;59.422;17.930;2023-11-21T08:44:31;1.60;99.90
44695;DHT22;32845;59.422;17.930;2023-11-21T08:49:02;1.60;99.90
44695;DHT22;32845;59.422;17.930;2023-11-21T08:53:32;1.60;99.90
44695;DHT22;32845;59.422;17.930;2023-11-21T08:58:03;1.70;99.90
44695;DHT22;32845;59.422;17.930;2023-11-21T09:02:35;1.60;99.90
44695;DHT22;32845;59.422;17.930;2023-11-21T09:07:07;1.70;99.90
44695;DHT22;32845;59.422;17.930;2023-11-21T09:11:38;1.70;99.90
44695;DHT22;32845;59.422;17.930;2023-11-21T09:16:08;1.70;99.90
44695;DHT22;32845;59.422;17.930;2023-11-21T09:20:39;1.80;99.90
44695;DHT22;32845;59.422;17.930;2023-11-21T09:25:10;1.80;99.90
44695;DHT22;32845;59.422;17.930;2023-11-21T09:29:40;1.80;99.90
44695;DHT22;32845;59.422;17.930;2023-11-21T09:34:11;1.80;99.90
44695;DHT22;32845;59.422;17.930;2023-11-21T09:38:42;1.80;99.90
44695;DHT22;32845;59.422;17.930;2023-11-21T09:43:16;1.90;99.90
44695;DHT22;32845;59.422;17.930;2023-11-21T09:47:47;1.90;99.90
44695;DHT22;32845;59.422;17.930;2023-11-21T09:52:24;1.90;99.90
44695;DHT22;32845;59.422;17.930;2023-11-21T09:56:55;2.00;99.90
44695;DHT22;32845;59.422;17.930;2023-11-21T10:01:28;2.00;99.90
44695;DHT22;32845;59.422;17.930;2023-11-21T10:06:00;2.00;99.90
44695;DHT22;32845;59.422;17.930;2023-11-21T10:10:32;2.00;99.90
44695;DHT22;32845;59.422;17.930;2023-11-21T10:15:03;1.90;99.90
44695;DHT22;32845;59.422;17.930;2023-11-21T10:19:39;1.80;99.90
44695;DHT22;32845;59.422;17.930;2023-11-21T10:24:10;1.80;99.90
44695;DHT22;32845;59.422;17.930;2023-11-21T10:28:58;1.80;99.90
44695;DHT22;32845;59.422;17.930;2023-11-21T10:33:29;1.80;99.90
44695;DHT22;32845;59.422;17.930;2023-11-21T10:38:00;1.80;99.90
44695;DHT22;32845;59.422;17.930;2023-11-21T10:42:32;1.80;99.90
44695;DHT22;32845;59.422;17.930;2023-11-21T10:47:03;1.80;99.90
44695;DHT22;32845;59.422;17.930;2023-11-21T10:51:33;1.80;99.90
44695;DHT22;32845;59.422;17.930;2023-11-21T10:56:06;1.80;99.90
44695;DHT22;32845;59.422;17.930;2023-11-21T11:00:38;1.80;99.90
44695;DHT22;32845;59.422;17.930;2023-11-21T11:05:10;1.80;99.90
44695;DHT22;32845;59.422;17.930;2023-11-21T11:09:42;1.80;99.90
44695;DHT22;32845;59.422;17.930;2023-11-21T11:14:14;1.90;99.90
44695;DHT22;32845;59.422;17.930;2023-11-21T11:18:46;1.90;99.90
44695;DHT22;32845;59.422;17.930;2023-11-21T11:23:30;1.90;99.90
44695;DHT22;32845;59.422;17.930;2023-11-21T11:28:15;2.00;99.90
44695;DHT22;32845;59.422;17.930;2023-11-21T11:33:07;1.90;99.90
44695;DHT22;32845;59.422;17.930;2023-11-21T11:37:39;1.90;99.90
44695;DHT22;32845;59.422;17.930;2023-11-21T11:42:14;1.90;99.90
44695;DHT22;32845;59.422;17.930;2023-11-21T11:46:46;1.80;99.90
44695;DHT22;32845;59.422;17.930;2023-11-21T11:51:16;1.90;99.90
44695;DHT22;32845;59.422;17.930;2023-11-21T11:56:18;1.80;99.90
44695;DHT22;32845;59.422;17.930;2023-11-21T12:00:50;1.80;99.90
44695;DHT22;32845;59.422;17.930;2023-11-21T12:05:23;1.90;99.90
44695;DHT22;32845;59.422;17.930;2023-11-21T12:09:55;1.90;99.90
44695;DHT22;32845;59.422;17.930;2023-11-21T12:14:25;1.90;99.90
44695;DHT22;32845;59.422;17.930;2023-11-21T12:18:56;2.00;99.90
44695;DHT22;32845;59.422;17.930;2023-11-21T12:23:27;2.00;99.90
44695;DHT22;32845;59.422;17.930;2023-11-21T12:27:59;2.00;99.90
44695;DHT22;32845;59.422;17.930;2023-11-21T12:32:30;2.00;99.90
44695;DHT22;32845;59.422;17.930;2023-11-21T12:37:01;1.90;99.90
44695;DHT22;32845;59.422;17.930;2023-11-21T12:41:31;1.90;99.90
44695;DHT22;32845;59.422;17.930;2023-11-21T12:46:10;1.90;99.90
44695;DHT22;32845;59.422;17.930;2023-11-21T12:50:40;1.80;99.90
44695;DHT22;32845;59.422;17.930;2023-11-21T12:55:16;1.80;99.90
44695;DHT22;32845;59.422;17.930;2023-11-21T12:59:47;1.70;99.90
44695;DHT22;32845;59.422;17.930;2023-11-21T13:04:18;1.70;99.90
44695;DHT22;32845;59.422;17.930;2023-11-21T13:08:49;1.70;99.90
44695;DHT22;32845;59.422;17.930;2023-11-21T13:13:19;1.70;99.90
44695;DHT22;32845;59.422;17.930;2023-11-21T13:17:51;1.60;99.90
44695;DHT22;32845;59.422;17.930;2023-11-21T13:22:23;1.60;99.90
44695;DHT22;32845;59.422;17.930;2023-11-21T13:26:55;1.50;99.90
44695;DHT22;32845;59.422;17.930;2023-11-21T13:31:25;1.40;99.90
44695;DHT22;32845;59.422;17.930;2023-11-21T13:35:59;1.40;99.90
44695;DHT22;32845;59.422;17.930;2023-11-21T13:40:31;1.30;99.90
44695;DHT22;32845;59.422;17.930;2023-11-21T13:45:05;1.30;99.90
44695;DHT22;32845;59.422;17.930;2023-11-21T13:49:36;1.20;99.90
44695;DHT22;32845;59.422;17.930;2023-11-21T13:54:11;1.20;99.90
44695;DHT22;32845;59.422;17.930;2023-11-21T13:58:41;1.10;99.90
44695;DHT22;32845;59.422;17.930;2023-11-21T14:03:20;1.10;99.90
44695;DHT22;32845;59.422;17.930;2023-11-21T14:07:52;1.00;99.90
44695;DHT22;32845;59.422;17.930;2023-11-21T14:12:22;0.90;99.90
44695;DHT22;32845;59.422;17.930;2023-11-21T14:16:53;0.90;99.90
44695;DHT22;32845;59.422;17.930;2023-11-21T14:21:26;0.80;99.90
44695;DHT22;32845;59.422;17.930;2023-11-21T14:25:57;0.80;99.90
44695;DHT22;32845;59.422;17.930;2023-11-21T14:30:28;0.70;99.90
44695;DHT22;32845;59.422;17.930;2023-11-21T14:35:02;0.60;99.90
44695;DHT22;32845;59.422;17.930;2023-11-21T14:39:33;0.50;99.90
44695;DHT22;32845;59.422;17.930;2023-11-21T14:44:09;0.50;99.90
44695;DHT22;32845;59.422;17.930;2023-11-21T14:48:42;0.40;99.90
44695;DHT22;32845;59.422;17.930;2023-11-21T14:53:13;0.30;99.90
44695;DHT22;32845;59.422;17.930;2023-11-21T14:57:44;0.30;99.90
44695;DHT22;32845;59.422;17.930;2023-11-21T15:02:20;0.30;99.90
44695;DHT22;32845;59.422;17.930;2023-11-21T15:07:10;0.20;99.90
44695;DHT22;32845;59.422;17.930;2023-11-21T15:11:42;0.20;99.90
44695;DHT22;32845;59.422;17.930;2023-11-21T15:16:12;0.10;99.90
44695;DHT22;32845;59.422;17.930;2023-11-21T15:20:43;0.10;99.90
44695;DHT22;32845;59.422;17.930;2023-11-21T15:25:14;0.10;99.90
44695;DHT22;32845;59.422;17.930;2023-11-21T15:29:45;0.10;99.90
44695;DHT22;32845;59.422;17.930;2023-11-21T15:34:16;0.10;99.90
44695;DHT22;32845;59.422;17.930;2023-11-21T15:38:46;0.10;99.90
44695;DHT22;32845;59.422;17.930;2023-11-21T15:43:17;0.10;99.90
44695;DHT22;32845;59.422;17.930;2023-11-21T15:47:47;0.10;99.90
44695;DHT22;32845;59.422;17.930;2023-11-21T15:52:18;0.20;99.90
44695;DHT22;32845;59.422;17.930;2023-11-21T15:56:49;0.20;99.90
44695;DHT22;32845;59.422;17.930;2023-11-21T16:01:20;0.30;99.90
44695;DHT22;32845;59.422;17.930;2023-11-21T16:05:52;0.20;99.90
44695;DHT22;32845;59.422;17.930;2023-11-21T16:10:22;0.20;99.90
44695;DHT22;32845;59.422;17.930;2023-11-21T16:14:53;0.20;99.90
44695;DHT22;32845;59.422;17.930;2023-11-21T16:19:24;0.10;99.90
44695;DHT22;32845;59.422;17.930;2023-11-21T16:23:54;0.10;99.90
44695;DHT22;32845;59.422;17.930;2023-11-21T16:28:25;0.10;99.90
44695;DHT22;32845;59.422;17.930;2023-11-21T16:32:56;0.10;99.90
44695;DHT22;32845;59.422;17.930;2023-11-21T16:37:27;0.20;99.90
44695;DHT22;32845;59.422;17.930;2023-11-21T16:41:57;0.20;99.90
44695;DHT22;32845;59.422;17.930;2023-11-21T16:46:28;0.20;99.90
44695;DHT22;32845;59.422;17.930;2023-11-21T16:50:59;0.20;99.90
44695;DHT22;32845;59.422;17.930;2023-11-21T16:55:30;0.30;99.90
44695;DHT22;32845;59.422;17.930;2023-11-21T17:00:00;0.30;99.90
44695;DHT22;32845;59.422;17.930;2023-11-21T17:04:31;0.30;99.90
44695;DHT22;32845;59.422;17.930;2023-11-21T17:09:04;0.30;99.90
44695;DHT22;32845;59.422;17.930;2023-11-21T17:13:38;0.30;99.90
44695;DHT22;32845;59.422;17.930;2023-11-21T17:18:08;0.30;99.90
44695;DHT22;32845;59.422;17.930;2023-11-21T17:22:39;0.20;99.90
44695;DHT22;32845;59.422;17.930;2023-11-21T17:27:10;0.10;99.90
44695;DHT22;32845;59.422;17.930;2023-11-21T17:31:43;0.10;99.90
44695;DHT22;32845;59.422;17.930;2023-11-21T17:36:13;0.00;99.90
44695;DHT22;32845;59.422;17.930;2023-11-21T17:40:45;0.00;99.90
44695;DHT22;32845;59.422;17.930;2023-11-21T17:45:16;-0.20;99.90
44695;DHT22;32845;59.422;17.930;2023-11-21T17:49:46;-0.20;99.90
44695;DHT22;32845;59.422;17.930;2023-11-21T17:54:19;-0.30;99.90
44695;DHT22;32845;59.422;17.930;2023-11-21T17:58:50;-0.40;99.90
44695;DHT22;32845;59.422;17.930;2023-11-21T18:03:24;-0.40;99.90
44695;DHT22;32845;59.422;17.930;2023-11-21T18:07:54;-0.50;99.90
44695;DHT22;32845;59.422;17.930;2023-11-21T18:12:25;-0.50;99.90
44695;DHT22;32845;59.422;17.930;2023-11-21T18:16:56;-0.60;99.90
44695;DHT22;32845;59.422;17.930;2023-11-21T18:21:27;-0.60;99.90
44695;DHT22;32845;59.422;17.930;2023-11-21T18:25:58;-0.70;99.90
44695;DHT22;32845;59.422;17.930;2023-11-21T18:30:28;-0.70;99.90
44695;DHT22;32845;59.422;17.930;2023-11-21T18:34:59;-0.80;99.90
44695;DHT22;32845;59.422;17.930;2023-11-21T18:39:29;-0.80;99.90
44695;DHT22;32845;59.422;17.930;2023-11-21T18:44:00;-0.80;99.90
44695;DHT22;32845;59.422;17.930;2023-11-21T18:48:32;-0.90;99.90
44695;DHT22;32845;59.422;17.930;2023-11-21T18:53:02;-1.00;99.90
44695;DHT22;32845;59.422;17.930;2023-11-21T18:57:33;-1.00;99.90
44695;DHT22;32845;59.422;17.930;2023-11-21T19:02:05;-1.00;99.90
44695;DHT22;32845;59.422;17.930;2023-11-21T19:06:38;-1.10;99.90
44695;DHT22;32845;59.422;17.930;2023-11-21T19:11:10;-1.10;99.90
44695;DHT22;32845;59.422;17.930;2023-11-21T19:15:41;-1.20;99.90
44695;DHT22;32845;59.422;17.930;2023-11-21T19:20:14;-1.30;99.90
44695;DHT22;32845;59.422;17.930;2023-11-21T19:24:45;-1.30;99.90
44695;DHT22;32845;59.422;17.930;2023-11-21T19:29:15;-1.30;99.90
44695;DHT22;32845;59.422;17.930;2023-11-21T19:33:47;-1.30;99.90
44695;DHT22;32845;59.422;17.930;2023-11-21T19:38:21;-1.30;99.90
44695;DHT22;32845;59.422;17.930;2023-11-21T19:42:52;-1.40;99.90
44695;DHT22;32845;59.422;17.930;2023-11-21T19:47:22;-1.40;99.90
44695;DHT22;32845;59.422;17.930;2023-11-21T19:51:53;-1.40;99.90
44695;DHT22;32845;59.422;17.930;2023-11-21T19:56:24;-1.40;99.90
44695;DHT22;32845;59.422;17.930;2023-11-21T20:00:55;-1.50;99.90
44695;DHT22;32845;59.422;17.930;2023-11-21T20:05:25;-1.50;99.90
44695;DHT22;32845;59.422;17.930;2023-11-21T20:10:00;-1.60;99.90
44695;DHT22;32845;59.422;17.930;2023-11-21T20:14:30;-1.70;99.90
44695;DHT22;32845;59.422;17.930;2023-11-21T20:19:01;-1.80;99.90
44695;DHT22;32845;59.422;17.930;2023-11-21T20:23:32;-1.90;99.90
44695;DHT22;32845;59.422;17.930;2023-11-21T20:28:04;-2.00;99.90
44695;DHT22;32845;59.422;17.930;2023-11-21T20:32:37;-2.00;99.90
44695;DHT22;32845;59.422;17.930;2023-11-21T20:37:08;-2.20;99.90
44695;DHT22;32845;59.422;17.930;2023-11-21T20:41:39;-2.20;99.90
44695;DHT22;32845;59.422;17.930;2023-11-21T20:46:11;-2.30;99.90
44695;DHT22;32845;59.422;17.930;2023-11-21T20:50:42;-2.40;99.90
44695;DHT22;32845;59.422;17.930;2023-11-21T20:55:13;-2.50;99.90
44695;DHT22;32845;59.422;17.930;2023-11-21T20:59:44;-2.60;99.90
44695;DHT22;32845;59.422;17.930;2023-11-21T21:04:15;-2.60;99.90
44695;DHT22;32845;59.422;17.930;2023-11-21T21:08:48;-2.70;99.90
44695;DHT22;32845;59.422;17.930;2023-11-21T21:13:19;-2.80;99.90
44695;DHT22;32845;59.422;17.930;2023-11-21T21:17:49;-2.80;99.90
44695;DHT22;32845;59.422;17.930;2023-11-21T21:22:20;-2.80;99.90
44695;DHT22;32845;59.422;17.930;2023-11-21T21:26:51;-2.90;99.90
44695;DHT22;32845;59.422;17.930;2023-11-21T21:31:22;-2.90;99.90
44695;DHT22;32845;59.422;17.930;2023-11-21T21:35:53;-2.90;99.90
44695;DHT22;32845;59.422;17.930;2023-11-21T21:40:24;-3.00;99.90
44695;DHT22;32845;59.422;17.930;2023-11-21T21:44:56;-3.00;99.90
44695;DHT22;32845;59.422;17.930;2023-11-21T21:49:27;-3.00;99.90
44695;DHT22;32845;59.422;17.930;2023-11-21T21:53:57;-3.00;99.90
44695;DHT22;32845;59.422;17.930;2023-11-21T21:58:28;-3.00;99.90
44695;DHT22;32845;59.422;17.930;2023-11-21T22:02:59;-3.10;99.90
44695;DHT22;32845;59.422;17.930;2023-11-21T22:07:31;-3.20;99.90
44695;DHT22;32845;59.422;17.930;2023-11-21T22:12:02;-3.20;99.90
44695;DHT22;32845;59.422;17.930;2023-11-21T22:16:33;-3.30;99.90
44695;DHT22;32845;59.422;17.930;2023-11-21T22:21:04;-3.40;99.90
44695;DHT22;32845;59.422;17.930;2023-11-21T22:25:36;-3.40;99.90
44695;DHT22;32845;59.422;17.930;2023-11-21T22:30:08;-3.50;99.90
44695;DHT22;32845;59.422;17.930;2023-11-21T22:34:41;-3.50;99.90
44695;DHT22;32845;59.422;17.930;2023-11-21T22:39:11;-3.50;99.90
44695;DHT22;32845;59.422;17.930;2023-11-21T22:43:42;-3.60;99.90
44695;DHT22;32845;59.422;17.930;2023-11-21T22:48:14;-3.70;99.90
44695;DHT22;32845;59.422;17.930;2023-11-21T22:52:45;-3.70;99.90
44695;DHT22;32845;59.422;17.930;2023-11-21T22:57:16;-3.80;99.90
44695;DHT22;32845;59.422;17.930;2023-11-21T23:01:50;-3.90;99.90
44695;DHT22;32845;59.422;17.930;2023-11-21T23:06:21;-3.90;99.90
44695;DHT22;32845;59.422;17.930;2023-11-21T23:10:54;-3.90;99.90
44695;DHT22;32845;59.422;17.930;2023-11-21T23:15:24;-4.00;99.90
44695;DHT22;32845;59.422;17.930;2023-11-21T23:19:56;-4.00;99.90
44695;DHT22;32845;59.422;17.930;2023-11-21T23:24:26;-4.10;99.90
44695;DHT22;32845;59.422;17.930;2023-11-21T23:28:57;-4.10;99.90
44695;DHT22;32845;59.422;17.930;2023-11-21T23:33:28;-4.10;99.90
44695;DHT22;32845;59.422;17.930;2023-11-21T23:38:00;-4.20;99.90
44695;DHT22;32845;59.422;17.930;2023-11-21T23:42:31;-4.20;99.90
44695;DHT22;32845;59.422;17.930;2023-11-21T23:47:02;-4.20;99.90
44695;DHT22;32845;59.422;17.930;2023-11-21T23:51:34;-4.20;99.90
44695;DHT22;32845;59.422;17.930;2023-11-21T23:56:05;-4.30;99.90
